sensor_id;sensor_type;location;lat;lon;timestamp;temperature;humidity
10276;DHT22;5183;51.190;6.820;2022-11-15T04:29:22;11.90;74.00
10276;DHT22;5183;51.190;6.820;2022-11-15T04:32:00;11.90;74.20
10276;DHT22;5183;51.190;6.820;2022-11-15T04:34:27;11.90;78.70
10276;DHT22;5183;51.190;6.820;2022-11-15T04:36:54;11.90;89.20
10276;DHT22;5183;51.190;6.820;2022-11-15T04:39:39;11.90;99.90
10276;DHT22;5183;51.190;6.820;2022-11-15T04:42:07;11.80;99.90
10276;DHT22;5183;51.190;6.820;2022-11-15T04:44:35;11.70;99.90
10276;DHT22;5183;51.190;6.820;2022-11-15T04:47:02;11.70;99.90
10276;DHT22;5183;51.190;6.820;2022-11-15T04:49:29;11.60;99.90
10276;DHT22;5183;51.190;6.820;2022-11-15T04:51:56;11.60;99.90
10276;DHT22;5183;51.190;6.820;2022-11-15T04:54:23;11.50;99.90
10276;DHT22;5183;51.190;6.820;2022-11-15T04:56:50;11.50;99.90
10276;DHT22;5183;51.190;6.820;2022-11-15T04:59:17;11.50;99.90
10276;DHT22;5183;51.190;6.820;2022-11-15T05:01:45;11.50;99.90
10276;DHT22;5183;51.190;6.820;2022-11-15T05:04:12;11.50;99.90
10276;DHT22;5183;51.190;6.820;2022-11-15T05:06:50;11.50;99.90
10276;DHT22;5183;51.190;6.820;2022-11-15T05:09:18;11.50;99.90
10276;DHT22;5183;51.190;6.820;2022-11-15T05:11:45;11.50;99.90
10276;DHT22;5183;51.190;6.820;2022-11-15T05:14:12;11.50;99.90
10276;DHT22;5183;51.190;6.820;2022-11-15T05:16:39;11.50;99.90
10276;DHT22;5183;51.190;6.820;2022-11-15T05:19:08;11.50;99.90
10276;DHT22;5183;51.190;6.820;2022-11-15T05:21:35;11.50;99.90
10276;DHT22;5183;51.190;6.820;2022-11-15T05:24:02;11.60;99.90
10276;DHT22;5183;51.190;6.820;2022-11-15T05:26:30;11.60;99.90
10276;DHT22;5183;51.190;6.820;2022-11-15T05:28:58;11.60;99.90
10276;DHT22;5183;51.190;6.820;2022-11-15T05:31:26;11.60;99.90
10276;DHT22;5183;51.190;6.820;2022-11-15T05:33:54;11.70;99.90
10276;DHT22;5183;51.190;6.820;2022-11-15T05:36:27;11.70;99.90
10276;DHT22;5183;51.190;6.820;2022-11-15T05:38:55;11.70;99.90
10276;DHT22;5183;51.190;6.820;2022-11-15T05:41:29;11.80;99.90
10276;DHT22;5183;51.190;6.820;2022-11-15T05:43:57;11.70;99.90
10276;DHT22;5183;51.190;6.820;2022-11-15T05:46:24;11.80;99.90
10276;DHT22;5183;51.190;6.820;2022-11-15T05:48:53;11.80;99.90
10276;DHT22;5183;51.190;6.820;2022-11-15T05:51:22;11.90;99.90
10276;DHT22;5183;51.190;6.820;2022-11-15T05:53:50;11.90;99.90
10276;DHT22;5183;51.190;6.820;2022-11-15T05:56:17;11.90;99.90
10276;DHT22;5183;51.190;6.820;2022-11-15T05:58:44;11.90;99.90
10276;DHT22;5183;51.190;6.820;2022-11-15T06:01:11;11.90;99.90
10276;DHT22;5183;51.190;6.820;2022-11-15T06:03:38;11.90;99.90
10276;DHT22;5183;51.190;6.820;2022-11-15T06:06:05;11.90;98.60
10276;DHT22;5183;51.190;6.820;2022-11-15T06:08:33;11.90;96.30
10276;DHT22;5183;51.190;6.820;2022-11-15T06:11:04;12.00;87.00
10276;DHT22;5183;51.190;6.820;2022-11-15T06:13:31;12.10;80.10
10276;DHT22;5183;51.190;6.820;2022-11-15T06:15:59;12.10;78.20
10276;DHT22;5183;51.190;6.820;2022-11-15T06:18:26;12.10;71.90
10276;DHT22;5183;51.190;6.820;2022-11-15T06:20:53;12.10;56.90
10276;DHT22;5183;51.190;6.820;2022-11-15T06:23:19;12.20;51.20
10276;DHT22;5183;51.190;6.820;2022-11-15T06:25:48;12.20;55.30
10276;DHT22;5183;51.190;6.820;2022-11-15T06:28:14;12.20;51.30
10276;DHT22;5183;51.190;6.820;2022-11-15T06:30:41;12.10;52.60
10276;DHT22;5183;51.190;6.820;2022-11-15T06:33:08;12.10;51.50
10276;DHT22;5183;51.190;6.820;2022-11-15T06:35:35;12.20;53.60
10276;DHT22;5183;51.190;6.820;2022-11-15T06:38:04;12.20;49.80
10276;DHT22;5183;51.190;6.820;2022-11-15T06:40:33;12.20;49.70
10276;DHT22;5183;51.190;6.820;2022-11-15T06:43:02;12.20;45.70
10276;DHT22;5183;51.190;6.820;2022-11-15T06:45:29;12.20;44.60
10276;DHT22;5183;51.190;6.820;2022-11-15T06:48:05;12.30;33.90
10276;DHT22;5183;51.190;6.820;2022-11-15T06:50:32;12.20;34.10
10276;DHT22;5183;51.190;6.820;2022-11-15T06:53:01;12.20;34.60
10276;DHT22;5183;51.190;6.820;2022-11-15T06:55:28;12.20;37.40
10276;DHT22;5183;51.190;6.820;2022-11-15T06:57:55;12.20;33.30
10276;DHT22;5183;51.190;6.820;2022-11-15T07:00:23;12.20;31.70
10276;DHT22;5183;51.190;6.820;2022-11-15T07:02:50;12.20;29.90
10276;DHT22;5183;51.190;6.820;2022-11-15T07:05:17;12.20;26.40
10276;DHT22;5183;51.190;6.820;2022-11-15T07:07:51;12.20;23.10
10276;DHT22;5183;51.190;6.820;2022-11-15T07:10:18;12.20;18.00
10276;DHT22;5183;51.190;6.820;2022-11-15T07:12:47;12.10;19.00
10276;DHT22;5183;51.190;6.820;2022-11-15T07:15:14;12.10;14.50
10276;DHT22;5183;51.190;6.820;2022-11-15T07:17:42;12.10;8.50
10276;DHT22;5183;51.190;6.820;2022-11-15T07:20:10;12.20;5.20
10276;DHT22;5183;51.190;6.820;2022-11-15T07:22:37;12.20;2.00
10276;DHT22;5183;51.190;6.820;2022-11-15T07:25:04;12.10;2.30
10276;DHT22;5183;51.190;6.820;2022-11-15T07:27:31;12.10;1.00
10276;DHT22;5183;51.190;6.820;2022-11-15T07:29:58;12.20;1.00
10276;DHT22;5183;51.190;6.820;2022-11-15T07:32:25;12.10;1.00
10276;DHT22;5183;51.190;6.820;2022-11-15T07:34:53;12.10;1.00
10276;DHT22;5183;51.190;6.820;2022-11-15T07:37:20;12.10;1.00
10276;DHT22;5183;51.190;6.820;2022-11-15T07:39:47;12.10;1.00
10276;DHT22;5183;51.190;6.820;2022-11-15T07:42:13;12.10;1.00
10276;DHT22;5183;51.190;6.820;2022-11-15T07:44:58;12.10;1.00
10276;DHT22;5183;51.190;6.820;2022-11-15T07:47:25;12.10;1.00
10276;DHT22;5183;51.190;6.820;2022-11-15T07:49:53;12.20;1.00
10276;DHT22;5183;51.190;6.820;2022-11-15T07:52:20;12.20;1.00
10276;DHT22;5183;51.190;6.820;2022-11-15T07:54:46;12.20;1.00
10276;DHT22;5183;51.190;6.820;2022-11-15T07:57:13;12.20;1.00
10276;DHT22;5183;51.190;6.820;2022-11-15T07:59:40;12.20;1.00
10276;DHT22;5183;51.190;6.820;2022-11-15T08:02:08;12.20;1.00
10276;DHT22;5183;51.190;6.820;2022-11-15T08:04:35;12.20;1.00
10276;DHT22;5183;51.190;6.820;2022-11-15T08:07:03;12.20;1.00
10276;DHT22;5183;51.190;6.820;2022-11-15T08:09:30;12.20;1.00
10276;DHT22;5183;51.190;6.820;2022-11-15T08:11:57;12.20;1.00
10276;DHT22;5183;51.190;6.820;2022-11-15T08:14:23;12.20;1.00
10276;DHT22;5183;51.190;6.820;2022-11-15T08:16:50;12.20;1.00
10276;DHT22;5183;51.190;6.820;2022-11-15T08:19:18;12.20;1.00
10276;DHT22;5183;51.190;6.820;2022-11-15T08:21:44;12.20;1.00
10276;DHT22;5183;51.190;6.820;2022-11-15T08:24:13;12.30;1.00
10276;DHT22;5183;51.190;6.820;2022-11-15T08:26:39;12.30;1.00
10276;DHT22;5183;51.190;6.820;2022-11-15T08:29:06;12.30;1.00
10276;DHT22;5183;51.190;6.820;2022-11-15T08:31:34;12.30;1.00
10276;DHT22;5183;51.190;6.820;2022-11-15T08:34:01;12.30;1.00
10276;DHT22;5183;51.190;6.820;2022-11-15T08:36:29;12.30;1.00
10276;DHT22;5183;51.190;6.820;2022-11-15T08:38:56;12.30;1.00
10276;DHT22;5183;51.190;6.820;2022-11-15T08:41:27;12.40;1.00
10276;DHT22;5183;51.190;6.820;2022-11-15T08:43:54;12.40;1.00
10276;DHT22;5183;51.190;6.820;2022-11-15T08:46:21;12.50;1.00
10276;DHT22;5183;51.190;6.820;2022-11-15T08:48:48;12.60;1.00
10276;DHT22;5183;51.190;6.820;2022-11-15T08:51:15;12.60;1.00
10276;DHT22;5183;51.190;6.820;2022-11-15T08:53:42;12.70;1.00
10276;DHT22;5183;51.190;6.820;2022-11-15T08:56:10;12.80;1.00
10276;DHT22;5183;51.190;6.820;2022-11-15T08:58:39;12.80;1.00
10276;DHT22;5183;51.190;6.820;2022-11-15T09:01:06;12.70;1.00
10276;DHT22;5183;51.190;6.820;2022-11-15T09:03:33;12.70;1.00
10276;DHT22;5183;51.190;6.820;2022-11-15T09:06:00;12.80;1.00
10276;DHT22;5183;51.190;6.820;2022-11-15T09:08:30;12.70;1.00
10276;DHT22;5183;51.190;6.820;2022-11-15T09:10:57;12.60;1.00
10276;DHT22;5183;51.190;6.820;2022-11-15T09:13:24;12.60;1.00
10276;DHT22;5183;51.190;6.820;2022-11-15T09:15:52;12.50;1.00
10276;DHT22;5183;51.190;6.820;2022-11-15T09:18:19;12.50;1.00
10276;DHT22;5183;51.190;6.820;2022-11-15T09:20:47;12.50;1.00
10276;DHT22;5183;51.190;6.820;2022-11-15T09:23:14;12.50;1.00
10276;DHT22;5183;51.190;6.820;2022-11-15T09:25:41;12.50;1.00
10276;DHT22;5183;51.190;6.820;2022-11-15T09:28:08;12.50;1.00
10276;DHT22;5183;51.190;6.820;2022-11-15T09:30:35;12.40;1.00
10276;DHT22;5183;51.190;6.820;2022-11-15T09:33:07;12.50;1.00
10276;DHT22;5183;51.190;6.820;2022-11-15T09:35:34;12.50;1.00
10276;DHT22;5183;51.190;6.820;2022-11-15T09:38:01;12.50;1.00
10276;DHT22;5183;51.190;6.820;2022-11-15T09:40:30;12.60;1.00
10276;DHT22;5183;51.190;6.820;2022-11-15T09:43:25;12.60;1.00
10276;DHT22;5183;51.190;6.820;2022-11-15T09:46:04;12.60;1.00
10276;DHT22;5183;51.190;6.820;2022-11-15T09:48:47;12.60;1.00
10276;DHT22;5183;51.190;6.820;2022-11-15T09:51:23;12.60;1.00
10276;DHT22;5183;51.190;6.820;2022-11-15T09:53:56;12.70;1.00
10276;DHT22;5183;51.190;6.820;2022-11-15T09:56:26;12.70;1.00
10276;DHT22;5183;51.190;6.820;2022-11-15T09:59:03;12.70;1.00
10276;DHT22;5183;51.190;6.820;2022-11-15T10:01:39;12.60;1.00
10276;DHT22;5183;51.190;6.820;2022-11-15T10:04:09;12.70;1.00
10276;DHT22;5183;51.190;6.820;2022-11-15T10:06:39;12.70;1.00
10276;DHT22;5183;51.190;6.820;2022-11-15T10:09:13;12.70;1.00
10276;DHT22;5183;51.190;6.820;2022-11-15T10:11:41;12.70;1.00
10276;DHT22;5183;51.190;6.820;2022-11-15T10:14:11;12.70;1.00
10276;DHT22;5183;51.190;6.820;2022-11-15T10:19:38;12.70;1.00
10276;DHT22;5183;51.190;6.820;2022-11-15T10:22:27;12.70;1.00
10276;DHT22;5183;51.190;6.820;2022-11-15T10:25:13;12.70;1.00
10276;DHT22;5183;51.190;6.820;2022-11-15T10:27:43;12.70;1.00
10276;DHT22;5183;51.190;6.820;2022-11-15T10:30:13;12.70;1.00
10276;DHT22;5183;51.190;6.820;2022-11-15T10:32:42;12.70;1.00
10276;DHT22;5183;51.190;6.820;2022-11-15T10:35:23;12.70;1.00
10276;DHT22;5183;51.190;6.820;2022-11-15T10:37:50;12.80;1.00
10276;DHT22;5183;51.190;6.820;2022-11-15T10:40:19;12.80;1.00
10276;DHT22;5183;51.190;6.820;2022-11-15T10:42:47;12.80;1.00
10276;DHT22;5183;51.190;6.820;2022-11-15T10:45:29;12.80;1.00
10276;DHT22;5183;51.190;6.820;2022-11-15T10:48:21;12.70;1.00
10276;DHT22;5183;51.190;6.820;2022-11-15T10:50:50;12.80;1.00
10276;DHT22;5183;51.190;6.820;2022-11-15T10:53:26;12.80;1.00
10276;DHT22;5183;51.190;6.820;2022-11-15T10:55:56;12.80;1.00
10276;DHT22;5183;51.190;6.820;2022-11-15T10:58:35;12.90;1.00
10276;DHT22;5183;51.190;6.820;2022-11-15T11:01:12;12.90;1.00
10276;DHT22;5183;51.190;6.820;2022-11-15T11:03:41;13.00;1.00
10276;DHT22;5183;51.190;6.820;2022-11-15T11:06:11;13.00;1.00
10276;DHT22;5183;51.190;6.820;2022-11-15T11:08:39;13.10;1.00
10276;DHT22;5183;51.190;6.820;2022-11-15T11:11:06;13.10;1.00
10276;DHT22;5183;51.190;6.820;2022-11-15T11:13:35;13.20;1.00
10276;DHT22;5183;51.190;6.820;2022-11-15T11:16:15;13.30;1.00
10276;DHT22;5183;51.190;6.820;2022-11-15T11:18:52;13.40;1.00
10276;DHT22;5183;51.190;6.820;2022-11-15T11:21:30;13.40;1.00
10276;DHT22;5183;51.190;6.820;2022-11-15T11:24:08;13.50;1.00
10276;DHT22;5183;51.190;6.820;2022-11-15T11:26:42;13.60;1.00
10276;DHT22;5183;51.190;6.820;2022-11-15T11:29:21;13.70;1.00
10276;DHT22;5183;51.190;6.820;2022-11-15T11:31:57;13.90;1.00
10276;DHT22;5183;51.190;6.820;2022-11-15T11:34:35;13.90;1.00
10276;DHT22;5183;51.190;6.820;2022-11-15T11:37:12;14.00;1.00
10276;DHT22;5183;51.190;6.820;2022-11-15T11:39:48;14.10;1.00
10276;DHT22;5183;51.190;6.820;2022-11-15T11:42:29;14.20;1.00
10276;DHT22;5183;51.190;6.820;2022-11-15T11:45:10;14.20;1.00
10276;DHT22;5183;51.190;6.820;2022-11-15T11:47:47;14.20;1.00
10276;DHT22;5183;51.190;6.820;2022-11-15T11:50:18;14.20;1.00
10276;DHT22;5183;51.190;6.820;2022-11-15T11:52:58;14.20;1.00
10276;DHT22;5183;51.190;6.820;2022-11-15T11:55:32;14.20;1.00
10276;DHT22;5183;51.190;6.820;2022-11-15T11:58:06;14.20;1.00
10276;DHT22;5183;51.190;6.820;2022-11-15T12:00:40;14.30;1.00
10276;DHT22;5183;51.190;6.820;2022-11-15T12:03:12;14.30;1.00
10276;DHT22;5183;51.190;6.820;2022-11-15T12:05:43;14.30;1.00
10276;DHT22;5183;51.190;6.820;2022-11-15T12:08:24;14.30;1.00
10276;DHT22;5183;51.190;6.820;2022-11-15T12:10:57;14.40;1.00
10276;DHT22;5183;51.190;6.820;2022-11-15T12:13:26;14.50;1.00
10276;DHT22;5183;51.190;6.820;2022-11-15T12:16:05;14.50;1.00
10276;DHT22;5183;51.190;6.820;2022-11-15T12:18:33;14.70;1.00
10276;DHT22;5183;51.190;6.820;2022-11-15T12:21:04;14.80;1.00
10276;DHT22;5183;51.190;6.820;2022-11-15T12:23:40;14.80;1.00
10276;DHT22;5183;51.190;6.820;2022-11-15T12:26:15;14.80;1.00
10276;DHT22;5183;51.190;6.820;2022-11-15T12:28:46;14.80;1.00
10276;DHT22;5183;51.190;6.820;2022-11-15T12:31:19;14.90;1.00
10276;DHT22;5183;51.190;6.820;2022-11-15T12:33:49;14.80;1.00
10276;DHT22;5183;51.190;6.820;2022-11-15T12:36:34;14.70;1.00
10276;DHT22;5183;51.190;6.820;2022-11-15T12:39:05;14.70;1.00
10276;DHT22;5183;51.190;6.820;2022-11-15T12:41:33;14.80;1.00
10276;DHT22;5183;51.190;6.820;2022-11-15T12:44:00;14.80;1.00
10276;DHT22;5183;51.190;6.820;2022-11-15T12:47:04;14.90;1.00
10276;DHT22;5183;51.190;6.820;2022-11-15T12:49:44;15.00;1.00
10276;DHT22;5183;51.190;6.820;2022-11-15T12:52:11;15.10;1.00
10276;DHT22;5183;51.190;6.820;2022-11-15T12:55:00;15.40;1.00
10276;DHT22;5183;51.190;6.820;2022-11-15T12:57:41;15.50;1.00
10276;DHT22;5183;51.190;6.820;2022-11-15T13:00:38;15.60;1.00
10276;DHT22;5183;51.190;6.820;2022-11-15T13:03:32;15.70;1.00
10276;DHT22;5183;51.190;6.820;2022-11-15T13:08:51;15.80;1.00
10276;DHT22;5183;51.190;6.820;2022-11-15T13:11:52;15.90;1.00
10276;DHT22;5183;51.190;6.820;2022-11-15T13:14:41;15.90;1.00
10276;DHT22;5183;51.190;6.820;2022-11-15T13:17:22;15.80;1.00
10276;DHT22;5183;51.190;6.820;2022-11-15T13:19:56;15.70;1.00
10276;DHT22;5183;51.190;6.820;2022-11-15T13:22:25;15.80;1.00
10276;DHT22;5183;51.190;6.820;2022-11-15T13:28:27;15.60;1.00
10276;DHT22;5183;51.190;6.820;2022-11-15T13:30:57;15.50;1.00
10276;DHT22;5183;51.190;6.820;2022-11-15T13:33:29;15.50;1.00
10276;DHT22;5183;51.190;6.820;2022-11-15T13:35:58;15.40;1.00
10276;DHT22;5183;51.190;6.820;2022-11-15T13:38:28;15.50;1.00
10276;DHT22;5183;51.190;6.820;2022-11-15T13:40:56;15.50;1.00
10276;DHT22;5183;51.190;6.820;2022-11-15T13:43:31;15.50;1.00
10276;DHT22;5183;51.190;6.820;2022-11-15T13:46:12;15.50;1.00
10276;DHT22;5183;51.190;6.820;2022-11-15T13:48:40;15.60;1.00
10276;DHT22;5183;51.190;6.820;2022-11-15T13:51:14;15.60;1.00
10276;DHT22;5183;51.190;6.820;2022-11-15T13:53:46;15.60;1.00
10276;DHT22;5183;51.190;6.820;2022-11-15T13:56:14;15.60;1.00
10276;DHT22;5183;51.190;6.820;2022-11-15T13:58:43;15.50;1.00
10276;DHT22;5183;51.190;6.820;2022-11-15T14:01:15;15.40;1.00
10276;DHT22;5183;51.190;6.820;2022-11-15T14:03:52;15.40;1.00
10276;DHT22;5183;51.190;6.820;2022-11-15T14:06:21;15.40;1.00
10276;DHT22;5183;51.190;6.820;2022-11-15T14:09:00;15.30;1.00
10276;DHT22;5183;51.190;6.820;2022-11-15T14:11:28;15.20;1.00
10276;DHT22;5183;51.190;6.820;2022-11-15T14:14:13;15.30;1.00
10276;DHT22;5183;51.190;6.820;2022-11-15T14:16:42;15.20;1.00
10276;DHT22;5183;51.190;6.820;2022-11-15T14:19:12;15.30;1.00
10276;DHT22;5183;51.190;6.820;2022-11-15T14:24:39;15.20;1.00
10276;DHT22;5183;51.190;6.820;2022-11-15T14:27:20;15.10;1.00
10276;DHT22;5183;51.190;6.820;2022-11-15T14:29:49;15.00;1.00
10276;DHT22;5183;51.190;6.820;2022-11-15T14:32:18;14.90;1.00
10276;DHT22;5183;51.190;6.820;2022-11-15T14:34:47;14.80;1.00
10276;DHT22;5183;51.190;6.820;2022-11-15T14:37:22;14.80;1.00
10276;DHT22;5183;51.190;6.820;2022-11-15T14:39:50;14.70;1.00
10276;DHT22;5183;51.190;6.820;2022-11-15T14:42:17;14.60;1.00
10276;DHT22;5183;51.190;6.820;2022-11-15T14:44:44;14.60;1.00
10276;DHT22;5183;51.190;6.820;2022-11-15T14:47:12;14.50;1.00
10276;DHT22;5183;51.190;6.820;2022-11-15T14:49:39;14.50;1.00
10276;DHT22;5183;51.190;6.820;2022-11-15T14:52:21;14.40;1.00
10276;DHT22;5183;51.190;6.820;2022-11-15T14:54:49;14.40;1.00
10276;DHT22;5183;51.190;6.820;2022-11-15T14:57:16;14.50;1.00
10276;DHT22;5183;51.190;6.820;2022-11-15T14:59:43;14.40;1.00
10276;DHT22;5183;51.190;6.820;2022-11-15T15:02:15;14.40;1.00
10276;DHT22;5183;51.190;6.820;2022-11-15T15:04:42;14.30;1.00
10276;DHT22;5183;51.190;6.820;2022-11-15T15:07:09;14.30;1.00
10276;DHT22;5183;51.190;6.820;2022-11-15T15:09:36;14.30;1.00
10276;DHT22;5183;51.190;6.820;2022-11-15T15:12:03;14.30;1.00
10276;DHT22;5183;51.190;6.820;2022-11-15T15:14:30;14.30;1.00
10276;DHT22;5183;51.190;6.820;2022-11-15T15:16:57;14.20;1.00
10276;DHT22;5183;51.190;6.820;2022-11-15T15:19:25;14.20;1.00
10276;DHT22;5183;51.190;6.820;2022-11-15T15:21:52;14.20;1.00
10276;DHT22;5183;51.190;6.820;2022-11-15T15:24:18;14.20;1.00
10276;DHT22;5183;51.190;6.820;2022-11-15T15:26:45;14.10;1.00
10276;DHT22;5183;51.190;6.820;2022-11-15T15:29:12;14.00;1.00
10276;DHT22;5183;51.190;6.820;2022-11-15T15:31:39;14.00;1.00
10276;DHT22;5183;51.190;6.820;2022-11-15T15:34:06;14.00;1.00
10276;DHT22;5183;51.190;6.820;2022-11-15T15:36:34;13.90;1.00
10276;DHT22;5183;51.190;6.820;2022-11-15T15:39:00;13.90;1.00
10276;DHT22;5183;51.190;6.820;2022-11-15T15:41:27;13.90;1.00
10276;DHT22;5183;51.190;6.820;2022-11-15T15:43:54;13.90;1.00
10276;DHT22;5183;51.190;6.820;2022-11-15T15:46:21;13.90;1.00
10276;DHT22;5183;51.190;6.820;2022-11-15T15:48:48;13.80;1.00
10276;DHT22;5183;51.190;6.820;2022-11-15T15:51:15;13.80;1.00
10276;DHT22;5183;51.190;6.820;2022-11-15T15:53:43;13.80;1.00
10276;DHT22;5183;51.190;6.820;2022-11-15T15:56:10;13.80;1.00
10276;DHT22;5183;51.190;6.820;2022-11-15T15:58:36;13.80;1.00
10276;DHT22;5183;51.190;6.820;2022-11-15T16:01:03;13.80;1.00
10276;DHT22;5183;51.190;6.820;2022-11-15T16:03:30;13.80;1.00
10276;DHT22;5183;51.190;6.820;2022-11-15T16:05:57;13.80;1.00
10276;DHT22;5183;51.190;6.820;2022-11-15T16:08:24;13.70;1.00
10276;DHT22;5183;51.190;6.820;2022-11-15T16:10:54;13.70;1.00
10276;DHT22;5183;51.190;6.820;2022-11-15T16:13:21;13.60;1.00
10276;DHT22;5183;51.190;6.820;2022-11-15T16:15:52;13.60;1.00
10276;DHT22;5183;51.190;6.820;2022-11-15T16:18:19;13.70;1.00
10276;DHT22;5183;51.190;6.820;2022-11-15T16:20:47;13.70;1.00
10276;DHT22;5183;51.190;6.820;2022-11-15T16:23:18;13.70;1.00
10276;DHT22;5183;51.190;6.820;2022-11-15T16:25:50;13.70;1.00
10276;DHT22;5183;51.190;6.820;2022-11-15T16:28:21;13.70;1.00
10276;DHT22;5183;51.190;6.820;2022-11-15T16:30:49;13.60;1.00
10276;DHT22;5183;51.190;6.820;2022-11-15T16:33:16;13.70;1.00
10276;DHT22;5183;51.190;6.820;2022-11-15T16:35:45;13.70;1.00
10276;DHT22;5183;51.190;6.820;2022-11-15T16:38:14;13.60;1.00
10276;DHT22;5183;51.190;6.820;2022-11-15T16:40:41;13.60;1.00
10276;DHT22;5183;51.190;6.820;2022-11-15T16:43:08;13.60;1.00
10276;DHT22;5183;51.190;6.820;2022-11-15T16:45:36;13.60;1.00
10276;DHT22;5183;51.190;6.820;2022-11-15T16:48:03;13.70;1.00
10276;DHT22;5183;51.190;6.820;2022-11-15T16:50:32;13.70;1.00
10276;DHT22;5183;51.190;6.820;2022-11-15T16:53:00;13.70;1.00
10276;DHT22;5183;51.190;6.820;2022-11-15T16:55:28;13.70;1.00
10276;DHT22;5183;51.190;6.820;2022-11-15T16:57:56;13.70;1.00
10276;DHT22;5183;51.190;6.820;2022-11-15T17:00:24;13.60;1.00
10276;DHT22;5183;51.190;6.820;2022-11-15T17:02:52;13.60;1.00
10276;DHT22;5183;51.190;6.820;2022-11-15T17:05:22;13.60;1.00
10276;DHT22;5183;51.190;6.820;2022-11-15T17:07:52;13.60;1.00
10276;DHT22;5183;51.190;6.820;2022-11-15T17:10:25;13.50;1.00
10276;DHT22;5183;51.190;6.820;2022-11-15T17:13:08;13.50;1.00
10276;DHT22;5183;51.190;6.820;2022-11-15T17:15:35;13.60;1.00
10276;DHT22;5183;51.190;6.820;2022-11-15T17:18:03;13.50;1.00
10276;DHT22;5183;51.190;6.820;2022-11-15T17:20:31;13.60;1.00
10276;DHT22;5183;51.190;6.820;2022-11-15T17:22:58;13.60;1.00
10276;DHT22;5183;51.190;6.820;2022-11-15T17:25:25;13.60;1.00
10276;DHT22;5183;51.190;6.820;2022-11-15T17:27:51;13.60;1.00
10276;DHT22;5183;51.190;6.820;2022-11-15T17:30:18;13.50;1.00
10276;DHT22;5183;51.190;6.820;2022-11-15T17:32:45;13.50;1.00
10276;DHT22;5183;51.190;6.820;2022-11-15T17:35:15;13.60;1.00
10276;DHT22;5183;51.190;6.820;2022-11-15T17:37:42;13.50;1.00
10276;DHT22;5183;51.190;6.820;2022-11-15T17:40:10;13.60;1.00
10276;DHT22;5183;51.190;6.820;2022-11-15T17:42:39;13.60;1.00
10276;DHT22;5183;51.190;6.820;2022-11-15T17:45:07;13.60;1.00
10276;DHT22;5183;51.190;6.820;2022-11-15T17:47:34;13.60;1.00
10276;DHT22;5183;51.190;6.820;2022-11-15T17:50:01;13.50;1.00
10276;DHT22;5183;51.190;6.820;2022-11-15T17:52:29;13.60;1.00
10276;DHT22;5183;51.190;6.820;2022-11-15T17:54:56;13.60;1.00
10276;DHT22;5183;51.190;6.820;2022-11-15T17:57:22;13.60;1.00
10276;DHT22;5183;51.190;6.820;2022-11-15T17:59:49;13.60;1.00
10276;DHT22;5183;51.190;6.820;2022-11-15T18:02:16;13.50;1.00
10276;DHT22;5183;51.190;6.820;2022-11-15T18:04:43;13.50;1.00
10276;DHT22;5183;51.190;6.820;2022-11-15T18:07:10;13.50;1.00
10276;DHT22;5183;51.190;6.820;2022-11-15T18:09:39;13.40;1.00
10276;DHT22;5183;51.190;6.820;2022-11-15T18:12:08;13.40;1.00
10276;DHT22;5183;51.190;6.820;2022-11-15T18:14:35;13.50;1.00
10276;DHT22;5183;51.190;6.820;2022-11-15T18:17:02;13.40;1.00
10276;DHT22;5183;51.190;6.820;2022-11-15T18:19:29;13.30;1.00
10276;DHT22;5183;51.190;6.820;2022-11-15T18:21:56;13.20;99.90
10276;DHT22;5183;51.190;6.820;2022-11-15T18:24:25;13.10;99.90
10276;DHT22;5183;51.190;6.820;2022-11-15T18:26:53;12.90;79.60
10276;DHT22;5183;51.190;6.820;2022-11-15T18:29:20;12.80;33.00
10276;DHT22;5183;51.190;6.820;2022-11-15T18:31:49;12.70;1.00
10276;DHT22;5183;51.190;6.820;2022-11-15T18:34:20;12.60;99.90
10276;DHT22;5183;51.190;6.820;2022-11-15T18:36:49;12.50;1.00
10276;DHT22;5183;51.190;6.820;2022-11-15T18:39:16;12.40;1.00
10276;DHT22;5183;51.190;6.820;2022-11-15T18:41:43;12.40;1.00
10276;DHT22;5183;51.190;6.820;2022-11-15T18:44:12;12.30;8.70
10276;DHT22;5183;51.190;6.820;2022-11-15T18:46:39;12.20;19.90
10276;DHT22;5183;51.190;6.820;2022-11-15T18:49:08;12.20;30.80
10276;DHT22;5183;51.190;6.820;2022-11-15T18:51:36;12.10;42.10
10276;DHT22;5183;51.190;6.820;2022-11-15T18:54:07;12.10;57.50
10276;DHT22;5183;51.190;6.820;2022-11-15T18:56:34;12.00;88.20
10276;DHT22;5183;51.190;6.820;2022-11-15T18:59:01;12.00;99.90
10276;DHT22;5183;51.190;6.820;2022-11-15T19:01:32;12.00;99.90
10276;DHT22;5183;51.190;6.820;2022-11-15T19:04:05;11.90;99.90
10276;DHT22;5183;51.190;6.820;2022-11-15T19:06:35;11.90;99.90
10276;DHT22;5183;51.190;6.820;2022-11-15T19:09:03;11.90;99.90
10276;DHT22;5183;51.190;6.820;2022-11-15T19:11:31;11.80;99.90
10276;DHT22;5183;51.190;6.820;2022-11-15T19:14:01;11.80;99.90
10276;DHT22;5183;51.190;6.820;2022-11-15T19:16:31;11.80;99.90
10276;DHT22;5183;51.190;6.820;2022-11-15T19:19:00;11.80;99.90
10276;DHT22;5183;51.190;6.820;2022-11-15T19:21:27;11.80;99.90
10276;DHT22;5183;51.190;6.820;2022-11-15T19:23:56;11.70;99.90
10276;DHT22;5183;51.190;6.820;2022-11-15T19:26:24;11.70;99.90
10276;DHT22;5183;51.190;6.820;2022-11-15T19:28:52;11.70;99.90
10276;DHT22;5183;51.190;6.820;2022-11-15T19:31:20;11.60;99.90
10276;DHT22;5183;51.190;6.820;2022-11-15T19:33:50;11.60;99.90
10276;DHT22;5183;51.190;6.820;2022-11-15T19:36:18;11.60;99.90
10276;DHT22;5183;51.190;6.820;2022-11-15T19:38:45;11.60;99.90
10276;DHT22;5183;51.190;6.820;2022-11-15T19:41:14;11.60;99.90
10276;DHT22;5183;51.190;6.820;2022-11-15T19:43:41;11.60;99.90
10276;DHT22;5183;51.190;6.820;2022-11-15T19:46:10;11.60;99.90
10276;DHT22;5183;51.190;6.820;2022-11-15T19:48:37;11.60;99.90
10276;DHT22;5183;51.190;6.820;2022-11-15T19:51:08;11.50;99.90
10276;DHT22;5183;51.190;6.820;2022-11-15T19:53:35;11.60;99.90
10276;DHT22;5183;51.190;6.820;2022-11-15T19:56:04;11.60;99.90
10276;DHT22;5183;51.190;6.820;2022-11-15T19:58:31;11.60;99.90
10276;DHT22;5183;51.190;6.820;2022-11-15T20:01:00;11.60;99.90
10276;DHT22;5183;51.190;6.820;2022-11-15T20:03:27;11.60;99.90
10276;DHT22;5183;51.190;6.820;2022-11-15T20:06:00;11.50;99.90
10276;DHT22;5183;51.190;6.820;2022-11-15T20:08:29;11.50;99.90
10276;DHT22;5183;51.190;6.820;2022-11-15T20:10:56;11.50;99.90
10276;DHT22;5183;51.190;6.820;2022-11-15T20:13:22;11.60;99.90
10276;DHT22;5183;51.190;6.820;2022-11-15T20:15:49;11.50;99.90
10276;DHT22;5183;51.190;6.820;2022-11-15T20:18:16;11.50;99.90
10276;DHT22;5183;51.190;6.820;2022-11-15T20:20:43;11.50;99.90
10276;DHT22;5183;51.190;6.820;2022-11-15T20:23:10;11.50;99.90
10276;DHT22;5183;51.190;6.820;2022-11-15T20:25:41;11.50;99.90
10276;DHT22;5183;51.190;6.820;2022-11-15T20:28:08;11.50;99.90
10276;DHT22;5183;51.190;6.820;2022-11-15T20:30:38;11.50;99.90
10276;DHT22;5183;51.190;6.820;2022-11-15T20:33:07;11.50;99.90
10276;DHT22;5183;51.190;6.820;2022-11-15T20:35:34;11.50;99.90
10276;DHT22;5183;51.190;6.820;2022-11-15T20:38:01;11.50;99.90
10276;DHT22;5183;51.190;6.820;2022-11-15T20:40:28;11.50;99.90
10276;DHT22;5183;51.190;6.820;2022-11-15T20:42:56;11.50;99.90
10276;DHT22;5183;51.190;6.820;2022-11-15T20:45:23;11.50;99.90
10276;DHT22;5183;51.190;6.820;2022-11-15T20:47:50;11.50;99.90
10276;DHT22;5183;51.190;6.820;2022-11-15T20:50:19;11.50;99.90
10276;DHT22;5183;51.190;6.820;2022-11-15T20:52:46;11.50;99.90
10276;DHT22;5183;51.190;6.820;2022-11-15T20:55:13;11.40;99.90